Time;durP1;ratioP1;P1;durP2;ratioP2;P2;SDS_P1;SDS_P2;PMS_P1;PMS_P2;Temp;Humidity;BMP_temperature;BMP_pressure;BME280_temperature;BME280_humidity;BME280_pressure;Samples;Min_cycle;Max_cycle;Signal;HPM_P1;HPM_P2
2022/03/19 00:01:53;;;;;;;27.88;14.70;;;3.50;47.00;;;;;;4996724;28;20124;-74
2022/03/19 00:04:36;;;;;;;34.95;20.23;;;3.40;46.90;;;;;;5009512;28;20049;-74
2022/03/19 00:07:09;;;;;;;47.08;24.63;;;3.40;47.20;;;;;;5009542;28;20529;-80
2022/03/19 00:09:39;;;;;;;54.10;26.27;;;3.40;47.20;;;;;;4995570;28;20050;-74
2022/03/19 00:14:57;;;;;;;43.60;22.75;;;3.20;47.60;;;;;;4997712;28;20042;-74
2022/03/19 00:17:23;;;;;;;31.25;16.35;;;3.10;47.70;;;;;;4994226;28;20030;-74
2022/03/19 00:19:52;;;;;;;36.55;16.02;;;3.10;47.70;;;;;;5010563;28;20058;-74
2022/03/19 00:22:18;;;;;;;39.88;17.48;;;3.10;47.70;;;;;;4993088;28;20117;-74
2022/03/19 00:24:44;;;;;;;41.83;19.70;;;3.00;47.20;;;;;;5010798;28;20034;-80
2022/03/19 00:27:14;;;;;;;56.92;22.42;;;3.00;47.80;;;;;;5010244;28;20128;-81
2022/03/19 00:30:01;;;;;;;44.00;20.92;;;3.00;47.80;;;;;;4995120;28;20088;-74
2022/03/19 00:32:31;;;;;;;71.80;28.88;;;2.90;47.60;;;;;;4996511;28;20061;-75
2022/03/19 00:35:01;;;;;;;55.78;25.85;;;2.90;48.10;;;;;;4994649;28;20045;-75
2022/03/19 00:38:04;;;;;;;50.38;20.20;;;2.90;48.30;;;;;;5012679;28;20050;-81
2022/03/19 00:40:30;;;;;;;60.50;27.52;;;2.80;48.30;;;;;;5094881;28;20050;-74
2022/03/19 00:43:03;;;;;;;;;;;2.80;48.40;;;;;;5096011;28;20116;-74
2022/03/19 00:45:31;;;;;;;36.95;17.63;;;2.70;47.80;;;;;;5095013;28;19973;-75
2022/03/19 00:47:58;;;;;;;32.40;14.85;;;2.70;48.30;;;;;;5095841;28;20036;-81
2022/03/19 00:50:24;;;;;;;41.22;19.02;;;2.70;48.50;;;;;;5095407;28;20040;-80
2022/03/19 00:52:52;;;;;;;36.28;16.73;;;2.70;48.00;;;;;;5095765;28;20119;-74
2022/03/19 00:55:18;;;;;;;36.90;16.92;;;2.70;48.70;;;;;;5094822;28;20032;-75
2022/03/19 00:57:53;;;;;;;31.08;14.88;;;2.70;48.80;;;;;;5095479;28;20073;-75
2022/03/19 01:00:32;;;;;;;27.92;13.32;;;2.70;48.90;;;;;;5095020;28;20135;-80
2022/03/19 01:03:27;;;;;;;30.92;14.77;;;2.70;48.90;;;;;;5095710;28;20401;-74
2022/03/19 01:05:54;;;;;;;26.38;12.10;;;2.60;49.10;;;;;;5090749;28;20029;-80
2022/03/19 01:08:20;;;;;;;31.25;14.77;;;2.60;49.10;;;;;;5096171;28;20031;-81
2022/03/19 01:10:46;;;;;;;23.08;12.43;;;2.60;49.20;;;;;;5094549;28;20119;-74
2022/03/19 01:13:17;;;;;;;;;;;2.50;48.90;;;;;;5094985;28;20118;-80
2022/03/19 01:15:44;;;;;;;24.63;10.50;;;2.60;48.90;;;;;;5095713;28;20408;-80
2022/03/19 01:18:21;;;;;;;24.33;11.13;;;2.50;49.00;;;;;;5095119;28;20435;-75
2022/03/19 01:21:02;;;;;;;28.27;12.48;;;2.50;49.40;;;;;;5094598;28;20036;-74
2022/03/19 01:23:29;;;;;;;27.58;12.88;;;2.50;49.10;;;;;;5096109;28;20040;-80
2022/03/19 01:25:56;;;;;;;28.30;11.98;;;2.50;49.00;;;;;;5094386;28;20118;-80
2022/03/19 01:28:34;;;;;;;29.77;13.52;;;2.50;49.10;;;;;;5095200;28;20093;-80
2022/03/19 01:31:06;;;;;;;30.98;13.00;;;2.50;49.10;;;;;;5077188;28;20520;-74
2022/03/19 01:33:38;;;;;;;26.45;13.10;;;2.50;49.00;;;;;;5094917;28;20036;-80
2022/03/19 01:36:10;;;;;;;34.22;15.52;;;2.40;49.00;;;;;;5094027;28;20040;-80
2022/03/19 01:38:37;;;;;;;53.30;23.85;;;2.30;48.70;;;;;;5095767;28;20043;-75
2022/03/19 01:41:04;;;;;;;70.75;25.83;;;2.10;49.40;;;;;;5093920;28;20032;-75
2022/03/19 01:43:30;;;;;;;56.80;23.80;;;2.10;49.70;;;;;;5077771;28;20485;-79
2022/03/19 01:45:56;;;;;;;41.83;18.00;;;2.10;49.70;;;;;;5094227;28;20028;-75
2022/03/19 01:48:22;;;;;;;43.97;19.75;;;2.10;49.50;;;;;;5094125;28;20105;-74
2022/03/19 01:51:07;;;;;;;42.08;18.30;;;2.10;49.50;;;;;;5093967;28;20066;-80
2022/03/19 01:53:33;;;;;;;40.63;17.65;;;2.10;49.40;;;;;;5093891;28;20043;-74
2022/03/19 01:56:00;;;;;;;;;;;2.10;49.40;;;;;;5095524;28;20036;-74
2022/03/19 01:58:34;;;;;;;33.25;15.88;;;2.00;48.40;;;;;;5078428;28;20338;-75
2022/03/19 02:01:00;;;;;;;30.75;15.43;;;2.00;49.00;;;;;;5076980;28;20067;-74
2022/03/19 02:03:29;;;;;;;36.15;16.80;;;2.00;48.80;;;;;;5094184;28;20032;-74
2022/03/19 02:06:00;;;;;;;34.70;16.98;;;2.00;48.90;;;;;;5093897;28;20043;-80
2022/03/19 02:08:49;;;;;;;34.70;16.20;;;2.00;49.10;;;;;;5076198;28;20028;-75
2022/03/19 02:11:25;;;;;;;32.33;16.08;;;2.00;49.70;;;;;;5093462;28;20030;-81
2022/03/19 02:13:51;;;;;;;32.70;14.60;;;1.90;49.80;;;;;;5093481;28;20052;-75
2022/03/19 02:16:19;;;;;;;28.25;14.02;;;1.90;49.80;;;;;;5093562;28;20032;-74
2022/03/19 02:18:50;;;;;;;33.92;13.95;;;1.90;49.80;;;;;;5077238;28;20543;-74
2022/03/19 02:21:19;;;;;;;29.88;13.38;;;1.80;49.90;;;;;;5076519;28;20032;-81
2022/03/19 02:26:57;;;;;;;24.38;12.32;;;1.80;50.00;;;;;;5093615;28;20085;-81
2022/03/19 02:29:26;;;;;;;27.50;13.40;;;1.70;49.70;;;;;;5076668;28;20028;-75
2022/03/19 02:32:11;;;;;;;28.05;14.48;;;1.70;50.00;;;;;;5093093;28;20055;-81
2022/03/19 02:34:47;;;;;;;27.08;13.20;;;1.70;50.20;;;;;;5093166;28;20032;-74
2022/03/19 02:37:19;;;;;;;26.42;12.68;;;1.70;50.20;;;;;;5092101;28;20077;-81
2022/03/19 02:39:45;;;;;;;25.90;11.50;;;1.70;50.10;;;;;;5093482;28;20034;-80
2022/03/19 02:42:18;;;;;;;25.88;13.02;;;1.60;50.30;;;;;;5094082;28;20117;-74
2022/03/19 02:44:48;;;;;;;25.55;12.48;;;1.60;50.30;;;;;;5094349;28;20040;-81
2022/03/19 02:47:15;;;;;;;26.95;12.43;;;1.60;49.80;;;;;;5092690;28;20024;-80
2022/03/19 02:49:41;;;;;;;23.48;12.27;;;1.60;50.40;;;;;;5093026;28;20043;-81
2022/03/19 02:52:07;;;;;;;25.35;12.50;;;1.50;50.60;;;;;;5091814;28;20044;-74
2022/03/19 02:54:33;;;;;;;;;;;1.50;50.60;;;;;;5094561;28;20043;-74
2022/03/19 02:57:00;;;;;;;30.52;12.95;;;1.50;50.30;;;;;;5092429;28;19920;-81
2022/03/19 02:59:46;;;;;;;28.77;13.25;;;1.40;50.40;;;;;;5092341;28;20497;-81
2022/03/19 03:02:12;;;;;;;39.80;13.73;;;1.40;50.70;;;;;;5093896;28;20077;-74
2022/03/19 03:04:38;;;;;;;28.35;13.25;;;1.40;50.70;;;;;;5092481;28;20029;-80
2022/03/19 03:07:04;;;;;;;31.02;12.40;;;1.40;51.00;;;;;;5091350;28;20067;-74
2022/03/19 03:09:33;;;;;;;24.92;12.10;;;1.30;51.00;;;;;;5092756;28;20040;-81
2022/03/19 03:12:01;;;;;;;26.08;11.15;;;1.30;51.10;;;;;;5092609;28;20024;-81
2022/03/19 03:14:27;;;;;;;28.10;12.35;;;1.30;51.30;;;;;;5092795;28;20492;-81
2022/03/19 03:16:53;;;;;;;;;;;1.20;50.80;;;;;;5092998;28;20051;-75
2022/03/19 03:19:20;;;;;;;22.27;11.05;;;1.20;50.90;;;;;;5075771;28;19916;-81
2022/03/19 03:21:47;;;;;;;24.58;10.98;;;1.20;51.00;;;;;;5092323;28;20101;-81
2022/03/19 03:24:14;;;;;;;22.27;10.30;;;1.20;50.70;;;;;;5091937;28;20043;-81
2022/03/19 03:26:41;;;;;;;23.13;11.20;;;1.20;51.10;;;;;;5093640;28;20047;-76
2022/03/19 03:29:08;;;;;;;20.52;9.48;;;1.20;51.20;;;;;;5075417;28;20032;-74
2022/03/19 03:31:35;;;;;;;18.17;9.50;;;1.20;51.20;;;;;;5093000;28;20078;-74
2022/03/19 03:34:02;;;;;;;21.25;10.32;;;1.20;51.20;;;;;;5092282;28;20036;-81
2022/03/19 03:36:28;;;;;;;28.58;14.60;;;1.20;51.40;;;;;;5091933;28;20031;-74
2022/03/19 03:38:54;;;;;;;;;;;1.20;51.60;;;;;;5092072;28;20419;-80
2022/03/19 03:41:20;;;;;;;45.33;21.88;;;1.00;51.50;;;;;;5091473;28;19912;-81
2022/03/19 03:43:47;;;;;;;30.10;13.95;;;1.00;51.50;;;;;;5093702;28;20477;-81
2022/03/19 03:46:13;;;;;;;;;;;1.00;51.70;;;;;;5092200;28;20040;-75
2022/03/19 03:48:40;;;;;;;21.00;11.60;;;1.00;51.30;;;;;;5092324;28;20376;-74
2022/03/19 03:51:07;;;;;;;24.95;12.18;;;0.90;51.50;;;;;;5091399;28;20043;-74
2022/03/19 03:53:35;;;;;;;24.85;12.63;;;0.90;51.70;;;;;;5091139;28;20040;-74
2022/03/19 03:56:03;;;;;;;27.52;14.60;;;0.90;51.70;;;;;;5091836;28;20040;-74
2022/03/19 03:58:30;;;;;;;26.80;14.30;;;0.90;51.70;;;;;;5075278;28;20043;-81
2022/03/19 04:00:57;;;;;;;30.02;13.52;;;0.90;51.20;;;;;;5074805;28;20224;-74
2022/03/19 04:03:23;;;;;;;29.23;13.10;;;0.90;51.90;;;;;;5091756;28;20051;-74
2022/03/19 04:05:49;;;;;;;26.33;12.18;;;0.80;51.90;;;;;;5091638;28;20043;-80
2022/03/19 04:08:16;;;;;;;27.25;12.30;;;0.80;52.10;;;;;;5091551;28;20452;-74
2022/03/19 04:10:42;;;;;;;25.52;13.40;;;0.70;51.50;;;;;;5095981;28;20389;-80
2022/03/19 04:13:09;;;;;;;26.27;12.48;;;0.80;51.90;;;;;;5098625;28;20070;-74
2022/03/19 04:15:35;;;;;;;25.42;12.82;;;0.70;51.40;;;;;;5098366;28;20093;-74
2022/03/19 04:18:04;;;;;;;;;;;0.70;52.00;;;;;;5099443;28;20036;-80
2022/03/19 04:20:30;;;;;;;25.38;12.07;;;0.70;51.60;;;;;;5098574;28;19923;-80
2022/03/19 04:22:57;;;;;;;;;;;0.60;51.70;;;;;;5098607;28;20035;-82
2022/03/19 04:25:25;;;;;;;24.25;11.52;;;0.50;51.40;;;;;;5098263;28;20296;-80
2022/03/19 04:28:12;;;;;;;25.23;12.32;;;0.50;51.60;;;;;;5098920;28;20032;-74
2022/03/19 04:30:40;;;;;;;26.40;12.23;;;0.50;52.00;;;;;;5081388;28;20061;-81
2022/03/19 04:33:06;;;;;;;28.35;11.88;;;0.50;51.70;;;;;;5098686;28;20040;-80
2022/03/19 04:38:38;;;;;;;25.95;12.88;;;0.40;51.50;;;;;;5099126;28;19922;-82
2022/03/19 04:41:04;;;;;;;35.53;16.58;;;0.40;52.00;;;;;;5098450;28;20032;-75
2022/03/19 04:43:30;;;;;;;30.95;15.57;;;0.40;51.90;;;;;;5081206;28;20050;-73
2022/03/19 04:45:56;;;;;;;32.10;13.85;;;0.40;52.80;;;;;;5097887;28;20043;-74
2022/03/19 04:48:22;;;;;;;49.05;20.67;;;0.40;52.20;;;;;;5098655;28;20494;-82
2022/03/19 04:50:48;;;;;;;58.60;22.80;;;0.40;52.30;;;;;;5098025;28;20032;-80
2022/03/19 04:53:15;;;;;;;49.65;18.88;;;0.40;52.30;;;;;;5099207;28;20095;-82
2022/03/19 04:55:40;;;;;;;;;;;0.30;51.70;;;;;;5098576;28;20546;-74
2022/03/19 04:58:08;;;;;;;27.35;13.52;;;0.30;51.90;;;;;;5098616;28;19916;-75
2022/03/19 05:00:37;;;;;;;26.88;13.00;;;0.30;51.80;;;;;;5097752;28;20036;-74
2022/03/19 05:03:23;;;;;;;27.75;13.50;;;0.30;52.00;;;;;;5098521;28;20130;-75
2022/03/19 05:05:49;;;;;;;25.77;12.60;;;0.30;52.40;;;;;;5098951;28;20115;-82
2022/03/19 05:08:16;;;;;;;27.35;12.93;;;0.30;52.30;;;;;;5098656;28;20044;-74
2022/03/19 05:13:29;;;;;;;29.98;12.73;;;0.30;52.30;;;;;;5098334;28;20082;-75
2022/03/19 05:15:56;;;;;;;29.42;12.30;;;0.20;52.10;;;;;;5080605;28;20123;-74
2022/03/19 05:18:23;;;;;;;26.90;11.85;;;0.20;52.40;;;;;;5098341;28;20039;-74
2022/03/19 05:20:49;;;;;;;27.85;11.93;;;0.10;52.40;;;;;;5097421;28;20036;-75
2022/03/19 05:23:15;;;;;;;27.05;12.52;;;0.20;51.80;;;;;;5094044;28;20472;-82
2022/03/19 05:25:41;;;;;;;24.77;11.38;;;0.20;52.20;;;;;;5095582;28;20051;-74
2022/03/19 05:28:07;;;;;;;30.92;12.98;;;0.20;52.20;;;;;;5078266;28;20471;-74
2022/03/19 05:30:34;;;;;;;36.92;14.98;;;0.20;51.60;;;;;;5094547;28;20040;-82
2022/03/19 05:33:00;;;;;;;;;;;0.20;51.50;;;;;;5096746;28;20032;-75
2022/03/19 05:35:27;;;;;;;24.55;12.23;;;0.10;51.90;;;;;;5094172;28;19981;-82
2022/03/19 05:37:53;;;;;;;23.80;10.68;;;0.10;51.80;;;;;;5078057;28;20078;-82
2022/03/19 05:40:19;;;;;;;;;;;0.00;51.40;;;;;;5095238;28;20048;-82
2022/03/19 05:42:45;;;;;;;22.98;10.60;;;0.10;51.80;;;;;;5096075;28;19922;-74
2022/03/19 05:45:13;;;;;;;;;;;0.10;51.80;;;;;;5095960;28;20063;-82
2022/03/19 05:47:39;;;;;;;27.73;11.80;;;0.10;50.90;;;;;;5094137;28;20348;-74
2022/03/19 05:50:07;;;;;;;25.73;11.27;;;0.10;51.50;;;;;;5095247;28;20043;-83
2022/03/19 05:52:33;;;;;;;23.33;11.48;;;0.20;51.50;;;;;;5095730;28;20036;-82
2022/03/19 05:54:59;;;;;;;;;;;0.20;51.60;;;;;;5077388;28;20036;-74
2022/03/19 05:57:26;;;;;;;22.58;10.77;;;0.30;51.50;;;;;;5094104;28;19916;-74
2022/03/19 05:59:52;;;;;;;25.55;11.35;;;0.30;51.40;;;;;;5094195;28;20063;-74
2022/03/19 06:02:18;;;;;;;35.92;12.63;;;0.40;51.50;;;;;;5095393;28;20468;-74
2022/03/19 06:04:44;;;;;;;28.45;12.30;;;0.40;51.50;;;;;;5077161;28;20427;-75
2022/03/19 06:07:10;;;;;;;37.75;13.98;;;0.50;51.60;;;;;;5093713;28;20040;-80
2022/03/19 06:09:36;;;;;;;;;;;0.60;51.60;;;;;;5093389;28;20033;-74
2022/03/19 06:12:02;;;;;;;34.78;16.77;;;0.60;51.70;;;;;;5093528;28;19922;-82
2022/03/19 06:14:28;;;;;;;42.28;18.85;;;0.60;51.30;;;;;;5093690;28;20072;-82
2022/03/19 06:16:55;;;;;;;69.20;25.77;;;0.60;52.00;;;;;;5094018;28;20028;-75
2022/03/19 06:19:21;;;;;;;;;;;0.70;52.10;;;;;;5094320;28;20046;-75
2022/03/19 06:21:47;;;;;;;40.80;18.63;;;0.70;51.70;;;;;;5093123;28;19969;-74
2022/03/19 06:24:13;;;;;;;;;;;0.80;52.30;;;;;;5076353;28;20038;-82
2022/03/19 06:26:39;;;;;;;36.72;16.30;;;0.90;51.60;;;;;;5093137;28;19922;-75
2022/03/19 06:29:06;;;;;;;32.30;14.77;;;1.00;51.70;;;;;;5076801;28;20028;-74
2022/03/19 06:31:33;;;;;;;33.67;16.00;;;1.10;51.80;;;;;;5094423;28;20040;-82
2022/03/19 06:33:59;;;;;;;39.17;17.75;;;1.20;51.80;;;;;;5092740;28;20074;-74
2022/03/19 06:39:11;;;;;;;44.17;21.98;;;1.40;52.10;;;;;;5093193;28;20083;-74
2022/03/19 06:41:37;;;;;;;87.75;41.10;;;1.40;52.30;;;;;;5092933;28;20031;-74
2022/03/19 06:44:04;;;;;;;59.08;33.88;;;1.60;52.60;;;;;;5093462;28;20032;-82
2022/03/19 06:46:30;;;;;;;44.92;26.83;;;1.60;52.90;;;;;;5092753;28;20039;-82
2022/03/19 06:48:56;;;;;;;31.70;19.83;;;1.70;52.90;;;;;;5093414;28;20032;-81
2022/03/19 06:51:22;;;;;;;47.03;25.20;;;1.80;52.70;;;;;;5094141;28;20043;-74
2022/03/19 06:53:48;;;;;;;;;;;1.90;52.10;;;;;;5093432;28;20143;-74
2022/03/19 06:56:16;;;;;;;54.95;25.73;;;2.00;51.50;;;;;;5092057;28;19916;-74
2022/03/19 06:58:42;;;;;;;52.92;24.65;;;2.10;52.00;;;;;;5093128;28;20050;-81
2022/03/19 07:01:14;;;;;;;;;;;2.30;52.20;;;;;;5093297;28;20043;-74
2022/03/19 07:03:59;;;;;;;41.10;21.35;;;2.40;51.60;;;;;;5093000;28;20376;-75
2022/03/19 07:06:25;;;;;;;37.67;19.80;;;2.60;51.80;;;;;;5092653;28;20082;-74
2022/03/19 07:08:51;;;;;;;42.03;22.58;;;2.60;51.80;;;;;;5092797;28;20032;-75
2022/03/19 07:11:18;;;;;;;43.50;24.88;;;2.80;51.90;;;;;;5091626;28;20444;-80
2022/03/19 07:13:44;;;;;;;66.32;32.33;;;2.90;51.80;;;;;;5093034;28;20550;-74
2022/03/19 07:16:11;;;;;;;75.68;37.85;;;3.10;51.70;;;;;;5092430;28;20047;-81
2022/03/19 07:18:38;;;;;;;64.80;33.03;;;3.30;51.70;;;;;;5094547;28;20028;-80
2022/03/19 07:21:04;;;;;;;51.50;26.55;;;3.40;51.70;;;;;;5092581;28;20093;-75
2022/03/19 07:23:30;;;;;;;;;;;3.50;51.60;;;;;;5093352;28;20036;-76
2022/03/19 07:25:59;;;;;;;42.58;20.23;;;3.70;51.20;;;;;;5091254;28;19920;-81
2022/03/19 07:28:26;;;;;;;40.58;21.10;;;3.80;51.00;;;;;;5092947;28;20089;-75
2022/03/19 07:30:52;;;;;;;35.30;19.90;;;3.90;50.80;;;;;;5075214;28;20077;-74
2022/03/19 07:33:18;;;;;;;42.75;21.40;;;4.10;50.80;;;;;;5092607;28;20050;-80
2022/03/19 07:35:45;;;;;;;51.50;26.63;;;4.30;50.70;;;;;;5092377;28;20496;-74
2022/03/19 07:38:11;;;;;;;47.97;25.60;;;4.40;50.40;;;;;;5092693;28;20028;-74
2022/03/19 07:43:24;;;;;;;36.65;18.80;;;4.80;49.90;;;;;;5093052;28;19922;-80
2022/03/19 07:45:50;;;;;;;47.53;22.45;;;5.00;49.50;;;;;;5074498;28;20032;-80
2022/03/19 07:48:17;;;;;;;53.10;24.45;;;5.30;50.30;;;;;;5092676;28;20081;-80
2022/03/19 07:50:42;;;;;;;;;;;5.50;49.20;;;;;;5092065;28;20046;-81
2022/03/19 07:53:09;;;;;;;64.00;30.45;;;6.20;48.80;;;;;;5092217;28;20365;-74
2022/03/19 07:55:36;;;;;;;59.15;27.23;;;7.20;47.40;;;;;;5090906;28;20035;-80
2022/03/19 07:58:03;;;;;;;;;;;8.20;46.20;;;;;;5094467;28;20256;-80
2022/03/19 08:00:29;;;;;;;57.00;29.35;;;9.20;47.20;;;;;;5108718;28;19923;-75
2022/03/19 08:02:55;;;;;;;51.75;25.95;;;10.20;45.90;;;;;;5093377;28;20043;-75
2022/03/19 08:05:21;;;;;;;50.25;24.88;;;11.20;45.10;;;;;;5091716;28;20050;-81
2022/03/19 08:07:48;;;;;;;43.78;21.55;;;12.10;44.30;;;;;;5092397;28;20050;-82
2022/03/19 08:10:15;;;;;;;41.25;21.38;;;12.80;43.30;;;;;;5090865;28;20063;-75
2022/03/19 08:12:43;;;;;;;43.47;21.92;;;13.70;41.10;;;;;;5075115;28;20192;-75
2022/03/19 08:15:11;;;;;;;34.67;17.88;;;14.60;39.90;;;;;;5075107;28;20036;-82
2022/03/19 08:17:38;;;;;;;27.30;14.48;;;15.40;38.70;;;;;;5092104;28;20032;-83
2022/03/19 08:22:50;;;;;;;23.85;12.88;;;16.70;36.10;;;;;;5093484;28;20035;-83
2022/03/19 08:25:17;;;;;;;;;;;17.60;35.10;;;;;;5092368;28;20039;-76
2022/03/19 08:27:43;;;;;;;18.60;9.48;;;18.20;37.30;;;;;;5092127;28;20276;-76
2022/03/19 08:30:09;;;;;;;;;;;19.00;32.40;;;;;;5091084;28;20032;-84
2022/03/19 08:32:35;;;;;;;19.35;10.23;;;19.40;33.40;;;;;;5092023;28;19930;-84
2022/03/19 08:35:02;;;;;;;;;;;20.00;29.40;;;;;;5075581;28;20029;-76
2022/03/19 08:37:28;;;;;;;20.60;11.82;;;20.30;30.80;;;;;;5091810;28;19955;-75
2022/03/19 08:42:40;;;;;;;17.58;10.80;;;21.20;26.30;;;;;;5093206;28;20078;-84
2022/03/19 08:45:06;;;;;;;;;;;21.70;24.80;;;;;;5092100;28;20036;-84
2022/03/19 08:47:33;;;;;;;21.60;13.05;;;22.20;26.90;;;;;;5093031;28;19916;-84
2022/03/19 08:50:00;;;;;;;15.73;9.95;;;23.00;23.90;;;;;;5091670;28;20028;-85
2022/03/19 08:52:26;;;;;;;22.02;12.50;;;23.60;22.60;;;;;;5091452;28;20468;-77
2022/03/19 08:54:53;;;;;;;23.27;13.73;;;24.20;22.00;;;;;;5073973;28;20047;-86
2022/03/19 08:57:20;;;;;;;20.13;11.23;;;24.80;20.60;;;;;;5092854;28;20032;-77
2022/03/19 08:59:46;;;;;;;15.80;9.65;;;25.40;19.90;;;;;;5095201;28;20063;-77
2022/03/19 09:02:12;;;;;;;17.88;10.15;;;25.70;18.70;;;;;;5095956;28;20036;-76
2022/03/19 09:04:38;;;;;;;17.42;9.98;;;26.20;19.40;;;;;;5078591;28;20030;-80
2022/03/19 09:07:04;;;;;;;;;;;26.60;17.80;;;;;;5078470;28;20105;-76
2022/03/19 09:09:30;;;;;;;18.98;10.60;;;27.20;20.60;;;;;;5096739;28;19920;-84
2022/03/19 09:11:56;;;;;;;18.77;10.52;;;27.80;16.80;;;;;;5093928;28;20059;-84
2022/03/19 09:14:24;;;;;;;21.70;11.52;;;28.20;16.80;;;;;;5095012;28;20036;-85
2022/03/19 09:16:50;;;;;;;17.35;9.90;;;28.50;15.60;;;;;;5094897;28;20480;-84
2022/03/19 09:19:16;;;;;;;17.88;10.20;;;28.90;14.80;;;;;;5096094;28;20516;-77
2022/03/19 09:21:43;;;;;;;16.17;11.25;;;29.20;14.70;;;;;;5094449;28;20039;-75
2022/03/19 09:24:10;;;;;;;17.17;11.18;;;29.40;14.40;;;;;;5078227;28;20062;-84
2022/03/19 09:26:36;;;;;;;18.05;10.38;;;29.40;13.50;;;;;;5076930;28;20044;-84
2022/03/19 09:29:03;;;;;;;18.02;10.77;;;29.80;13.60;;;;;;5095168;28;20032;-77
2022/03/19 09:31:30;;;;;;;21.45;11.98;;;30.10;12.40;;;;;;5094258;28;20477;-76
2022/03/19 09:33:56;;;;;;;17.05;10.43;;;29.70;12.00;;;;;;5095766;28;20078;-83
2022/03/19 09:36:22;;;;;;;18.63;11.73;;;30.20;12.00;;;;;;5094516;28;20113;-81
2022/03/19 09:38:48;;;;;;;17.10;10.70;;;30.10;11.90;;;;;;5095979;28;20028;-82
2022/03/19 09:41:14;;;;;;;32.17;16.38;;;28.00;12.50;;;;;;5094509;28;20058;-76
2022/03/19 09:43:42;;;;;;;19.58;12.80;;;26.20;13.70;;;;;;5077452;28;20085;-76
2022/03/19 09:46:08;;;;;;;19.85;11.73;;;26.10;13.80;;;;;;5077165;28;20405;-84
2022/03/19 09:48:34;;;;;;;16.60;11.43;;;26.20;13.60;;;;;;5096192;28;20040;-85
2022/03/19 09:51:01;;;;;;;17.13;11.25;;;25.70;12.90;;;;;;5094327;28;20036;-76
2022/03/19 09:53:28;;;;;;;19.80;12.52;;;25.80;13.40;;;;;;5077767;28;20400;-76
2022/03/19 09:55:57;;;;;;;17.38;10.30;;;27.20;13.40;;;;;;5093502;28;20040;-76
2022/03/19 09:58:25;;;;;;;15.48;9.90;;;28.70;11.90;;;;;;5095832;28;20035;-85
2022/03/19 10:00:51;;;;;;;19.45;11.98;;;30.00;11.80;;;;;;5077169;28;20115;-77
2022/03/19 10:03:22;;;;;;;19.88;11.85;;;30.00;11.00;;;;;;5094250;28;20074;-76
2022/03/19 10:08:36;;;;;;;19.90;11.18;;;31.60;10.70;;;;;;5095535;28;20059;-86
2022/03/19 10:11:21;;;;;;;17.63;11.32;;;31.30;10.40;;;;;;5093280;28;20063;-77
2022/03/19 10:13:50;;;;;;;16.15;11.32;;;31.20;11.20;;;;;;5093927;28;20056;-85
2022/03/19 10:16:36;;;;;;;16.50;10.48;;;32.50;10.20;;;;;;5076819;28;20055;-85
2022/03/19 10:19:06;;;;;;;16.80;11.20;;;33.20;10.10;;;;;;5093992;28;20399;-84
2022/03/19 10:21:54;;;;;;;16.27;10.73;;;33.90;9.30;;;;;;5076771;28;20040;-85
2022/03/19 10:24:39;;;;;;;20.50;13.48;;;35.10;9.70;;;;;;5093957;28;20556;-84
2022/03/19 10:27:18;;;;;;;15.50;10.40;;;35.80;8.90;;;;;;5092869;28;20032;-81
2022/03/19 10:29:44;;;;;;;16.60;11.15;;;36.40;8.30;;;;;;5077158;28;20056;-78
2022/03/19 10:32:13;;;;;;;16.83;11.77;;;37.00;8.00;;;;;;5093270;28;20043;-84
2022/03/19 10:34:40;;;;;;;16.77;10.45;;;36.00;7.60;;;;;;5076563;28;20077;-84
2022/03/19 10:37:06;;;;;;;16.70;11.23;;;36.00;8.20;;;;;;5094428;28;20024;-83
2022/03/19 10:39:32;;;;;;;15.48;11.82;;;36.30;7.30;;;;;;5094640;28;20028;-76
2022/03/19 10:41:59;;;;;;;17.33;11.63;;;36.00;7.60;;;;;;5092134;28;20114;-81
2022/03/19 10:44:28;;;;;;;16.15;11.85;;;36.20;7.50;;;;;;5093261;28;20055;-76
2022/03/19 10:47:14;;;;;;;19.50;11.82;;;36.50;7.30;;;;;;5075992;28;20028;-77
2022/03/19 10:49:43;;;;;;;16.42;11.02;;;36.90;7.30;;;;;;5093096;28;20036;-77
2022/03/19 10:52:17;;;;;;;16.25;11.23;;;37.50;7.00;;;;;;5092704;28;20067;-77
2022/03/19 10:54:44;;;;;;;16.63;10.05;;;38.00;6.70;;;;;;5093077;28;20032;-83
2022/03/19 10:57:10;;;;;;;19.98;12.43;;;38.30;6.60;;;;;;5075338;28;20046;-82
2022/03/19 10:59:37;;;;;;;12.70;8.73;;;38.90;6.60;;;;;;5092798;28;20028;-83
2022/03/19 11:02:03;;;;;;;13.50;9.60;;;38.80;6.30;;;;;;5075662;28;20040;-77
2022/03/19 11:04:31;;;;;;;16.90;9.18;;;38.80;5.20;;;;;;5076161;28;20040;-76
2022/03/19 11:07:00;;;;;;;15.25;10.35;;;38.90;5.50;;;;;;5092578;28;20473;-81
2022/03/19 11:09:32;;;;;;;18.48;12.27;;;39.50;5.50;;;;;;5092926;28;20036;-83
2022/03/19 11:12:20;;;;;;;18.15;11.57;;;39.20;5.40;;;;;;5091614;28;20054;-77
2022/03/19 11:14:50;;;;;;;17.67;11.23;;;39.00;6.10;;;;;;5093198;28;20097;-74
2022/03/19 11:17:40;;;;;;;16.52;12.50;;;38.90;5.80;;;;;;5075435;28;20028;-77
2022/03/19 11:20:10;;;;;;;16.05;10.43;;;39.50;5.90;;;;;;5091680;28;20050;-81
2022/03/19 11:22:56;;;;;;;11.60;8.48;;;39.50;5.80;;;;;;5092622;28;20028;-82
2022/03/19 11:26:00;;;;;;;14.70;10.48;;;39.60;5.90;;;;;;5075206;28;20046;-77
2022/03/19 11:28:26;;;;;;;15.77;11.00;;;40.10;6.00;;;;;;5072581;28;20047;-83
2022/03/19 11:31:14;;;;;;;15.13;10.15;;;40.60;5.10;;;;;;5071761;28;20421;-83
2022/03/19 11:33:40;;;;;;;13.57;9.88;;;40.90;5.30;;;;;;5072288;28;20056;-74
2022/03/19 11:36:10;;;;;;;13.57;9.43;;;41.40;5.40;;;;;;5071802;28;20032;-77
2022/03/19 11:38:56;;;;;;;15.13;9.27;;;41.20;4.90;;;;;;5072286;28;20043;-82
2022/03/19 11:41:26;;;;;;;13.95;10.30;;;40.90;5.10;;;;;;5072096;28;20029;-85
2022/03/19 11:44:30;;;;;;;12.93;9.93;;;41.00;5.00;;;;;;5092289;28;20036;-73
2022/03/19 11:47:16;;;;;;;13.68;10.00;;;40.70;5.30;;;;;;5074998;28;20480;-77
2022/03/19 11:50:06;;;;;;;14.57;9.65;;;40.70;4.90;;;;;;5075403;28;20036;-85
2022/03/19 11:52:50;;;;;;;15.27;11.13;;;40.80;4.90;;;;;;5076041;28;20497;-76
2022/03/19 11:55:22;;;;;;;15.52;9.60;;;40.00;5.20;;;;;;5092012;28;20105;-84
2022/03/19 11:57:55;;;;;;;16.95;10.82;;;39.40;4.80;;;;;;5091398;28;20028;-83
2022/03/19 12:00:27;;;;;;;15.80;10.00;;;39.20;5.20;;;;;;5075358;28;20114;-84
2022/03/19 12:03:12;;;;;;;17.25;11.65;;;39.80;5.00;;;;;;5092402;28;20032;-84
2022/03/19 12:05:48;;;;;;;13.18;10.35;;;39.50;5.00;;;;;;5093072;28;20033;-85
2022/03/19 12:08:19;;;;;;;15.55;11.00;;;39.80;4.80;;;;;;5075364;28;20131;-84
2022/03/19 12:13:47;;;;;;;15.52;10.48;;;40.60;4.60;;;;;;5091891;28;20427;-83
2022/03/19 12:16:52;;;;;;;13.75;9.57;;;40.90;4.10;;;;;;5091732;28;20055;-77
2022/03/19 12:20:00;;;;;;;14.32;10.40;;;41.50;4.70;;;;;;5091742;28;20448;-80
2022/03/19 12:22:45;;;;;;;13.80;9.93;;;40.80;4.60;;;;;;5091196;28;20040;-85
2022/03/19 12:25:13;;;;;;;20.92;13.43;;;40.80;4.50;;;;;;5091409;28;20028;-84
2022/03/19 12:27:41;;;;;;;17.98;11.85;;;41.20;4.50;;;;;;5091027;28;20121;-86
2022/03/19 12:30:09;;;;;;;14.27;10.32;;;41.10;4.30;;;;;;5091783;28;20036;-77
2022/03/19 12:32:56;;;;;;;13.75;10.52;;;40.40;4.40;;;;;;5097178;28;20538;-83
2022/03/19 12:35:38;;;;;;;13.75;10.02;;;40.60;4.60;;;;;;5095453;28;20115;-78
2022/03/19 12:38:05;;;;;;;16.58;10.88;;;40.90;4.30;;;;;;5095923;28;20039;-77
2022/03/19 12:43:18;;;;;;;15.30;10.90;;;40.90;3.90;;;;;;5094367;28;20063;-77
2022/03/19 12:45:49;;;;;;;18.45;12.68;;;41.30;4.60;;;;;;5078312;28;20119;-77
2022/03/19 12:48:39;;;;;;;15.88;10.85;;;41.70;4.00;;;;;;5095511;28;20032;-77
2022/03/19 12:51:06;;;;;;;15.40;10.85;;;42.50;4.30;;;;;;5095187;28;20059;-83
2022/03/19 12:53:52;;;;;;;14.50;11.35;;;42.40;4.20;;;;;;5095741;28;20028;-77
2022/03/19 12:56:39;;;;;;;14.82;11.15;;;42.50;4.00;;;;;;5077926;28;20043;-77
2022/03/19 12:59:05;;;;;;;12.75;10.82;;;42.00;4.50;;;;;;5094966;28;20036;-85
2022/03/19 13:01:31;;;;;;;13.43;9.95;;;42.20;4.10;;;;;;5077929;28;20028;-77
2022/03/19 13:04:01;;;;;;;13.35;9.30;;;42.10;4.20;;;;;;5096730;28;20032;-83
2022/03/19 13:06:46;;;;;;;14.45;10.82;;;42.60;4.00;;;;;;5078028;28;20032;-83
2022/03/19 13:09:12;;;;;;;14.07;10.55;;;42.90;4.00;;;;;;5096353;28;20054;-84
2022/03/19 13:11:58;;;;;;;14.77;10.95;;;42.90;3.80;;;;;;5094775;28;20028;-76
2022/03/19 13:14:24;;;;;;;;;;;42.60;4.10;;;;;;5094821;28;20496;-76
2022/03/19 13:16:54;;;;;;;13.90;10.77;;;41.70;4.30;;;;;;5094669;28;19919;-83
2022/03/19 13:19:40;;;;;;;16.95;11.40;;;38.40;4.60;;;;;;5078167;28;20051;-77
2022/03/19 13:22:08;;;;;;;15.68;11.07;;;36.10;5.70;;;;;;5094752;28;20027;-76
2022/03/19 13:24:36;;;;;;;16.27;11.52;;;36.20;5.60;;;;;;5094681;28;20036;-86
2022/03/19 13:27:04;;;;;;;16.10;10.60;;;37.40;5.00;;;;;;5094316;28;20028;-76
2022/03/19 13:29:48;;;;;;;16.17;11.43;;;37.60;4.80;;;;;;5095240;28;20072;-76
2022/03/19 13:32:19;;;;;;;15.20;10.27;;;38.10;5.20;;;;;;5094319;28;20888;-77